sensor_id;sensor_type;location;lat;lon;timestamp;temperature;humidity
2889;DHT22;1453;42.708;23.282;2022-12-05T00:03:50;5.10;99.90
2889;DHT22;1453;42.708;23.282;2022-12-05T00:06:17;5.30;99.90
2889;DHT22;1453;42.708;23.282;2022-12-05T00:08:44;5.20;99.90
2889;DHT22;1453;42.708;23.282;2022-12-05T00:11:12;5.20;99.90
2889;DHT22;1453;42.708;23.282;2022-12-05T00:13:40;5.30;99.90
2889;DHT22;1453;42.708;23.282;2022-12-05T00:16:09;5.20;99.90
2889;DHT22;1453;42.708;23.282;2022-12-05T00:18:36;5.20;99.90
2889;DHT22;1453;42.708;23.282;2022-12-05T00:21:03;5.10;99.90
2889;DHT22;1453;42.708;23.282;2022-12-05T00:23:29;5.20;99.90
2889;DHT22;1453;42.708;23.282;2022-12-05T00:25:55;5.30;99.90
2889;DHT22;1453;42.708;23.282;2022-12-05T00:28:21;5.10;99.90
2889;DHT22;1453;42.708;23.282;2022-12-05T00:30:47;5.20;99.90
2889;DHT22;1453;42.708;23.282;2022-12-05T00:33:13;5.10;99.90
2889;DHT22;1453;42.708;23.282;2022-12-05T00:35:39;5.20;99.90
2889;DHT22;1453;42.708;23.282;2022-12-05T00:38:04;5.10;99.90
2889;DHT22;1453;42.708;23.282;2022-12-05T00:40:30;5.10;99.90
2889;DHT22;1453;42.708;23.282;2022-12-05T00:42:56;5.20;99.90
2889;DHT22;1453;42.708;23.282;2022-12-05T00:45:23;5.10;99.90
2889;DHT22;1453;42.708;23.282;2022-12-05T00:47:49;5.00;99.90
2889;DHT22;1453;42.708;23.282;2022-12-05T00:50:15;4.90;99.90
2889;DHT22;1453;42.708;23.282;2022-12-05T00:52:42;5.00;99.90
2889;DHT22;1453;42.708;23.282;2022-12-05T00:55:09;5.00;99.90
2889;DHT22;1453;42.708;23.282;2022-12-05T00:57:35;5.10;99.90
2889;DHT22;1453;42.708;23.282;2022-12-05T01:00:02;5.00;99.90
2889;DHT22;1453;42.708;23.282;2022-12-05T01:02:29;5.10;99.90
2889;DHT22;1453;42.708;23.282;2022-12-05T01:04:55;5.30;99.90
2889;DHT22;1453;42.708;23.282;2022-12-05T01:07:21;5.30;99.90
2889;DHT22;1453;42.708;23.282;2022-12-05T01:09:46;5.20;99.90
2889;DHT22;1453;42.708;23.282;2022-12-05T01:12:12;5.30;99.90
2889;DHT22;1453;42.708;23.282;2022-12-05T01:14:38;5.30;99.90
2889;DHT22;1453;42.708;23.282;2022-12-05T01:17:04;5.30;99.90
2889;DHT22;1453;42.708;23.282;2022-12-05T01:19:31;5.30;99.90
2889;DHT22;1453;42.708;23.282;2022-12-05T01:21:58;5.20;99.90
2889;DHT22;1453;42.708;23.282;2022-12-05T01:24:25;5.30;99.90
2889;DHT22;1453;42.708;23.282;2022-12-05T01:26:52;5.10;99.90
2889;DHT22;1453;42.708;23.282;2022-12-05T01:29:20;5.10;99.90
2889;DHT22;1453;42.708;23.282;2022-12-05T01:31:47;5.10;99.90
2889;DHT22;1453;42.708;23.282;2022-12-05T01:34:15;5.00;99.90
2889;DHT22;1453;42.708;23.282;2022-12-05T01:36:42;5.10;99.90
2889;DHT22;1453;42.708;23.282;2022-12-05T01:39:10;5.00;99.90
2889;DHT22;1453;42.708;23.282;2022-12-05T01:41:43;5.00;99.90
2889;DHT22;1453;42.708;23.282;2022-12-05T01:46:38;5.00;99.90
2889;DHT22;1453;42.708;23.282;2022-12-05T01:49:13;5.00;99.90
2889;DHT22;1453;42.708;23.282;2022-12-05T01:51:47;5.10;99.90
2889;DHT22;1453;42.708;23.282;2022-12-05T01:54:16;5.10;99.90
2889;DHT22;1453;42.708;23.282;2022-12-05T01:56:47;5.00;99.90
2889;DHT22;1453;42.708;23.282;2022-12-05T01:59:16;5.10;99.90
2889;DHT22;1453;42.708;23.282;2022-12-05T02:01:43;5.10;99.90
2889;DHT22;1453;42.708;23.282;2022-12-05T02:04:09;5.20;99.90
2889;DHT22;1453;42.708;23.282;2022-12-05T02:06:35;5.10;99.90
2889;DHT22;1453;42.708;23.282;2022-12-05T02:09:02;5.10;99.90
2889;DHT22;1453;42.708;23.282;2022-12-05T02:11:29;5.00;99.90
2889;DHT22;1453;42.708;23.282;2022-12-05T02:16:57;4.90;99.90
2889;DHT22;1453;42.708;23.282;2022-12-05T02:19:46;4.80;99.90
2889;DHT22;1453;42.708;23.282;2022-12-05T02:22:49;5.00;99.90
2889;DHT22;1453;42.708;23.282;2022-12-05T02:37:20;5.00;99.90
2889;DHT22;1453;42.708;23.282;2022-12-05T02:40:34;4.90;99.90
2889;DHT22;1453;42.708;23.282;2022-12-05T02:46:03;5.10;99.90
2889;DHT22;1453;42.708;23.282;2022-12-05T02:48:34;5.10;99.90
2889;DHT22;1453;42.708;23.282;2022-12-05T02:51:02;5.10;99.90
2889;DHT22;1453;42.708;23.282;2022-12-05T02:53:32;5.00;99.90
2889;DHT22;1453;42.708;23.282;2022-12-05T02:56:00;5.00;99.90
2889;DHT22;1453;42.708;23.282;2022-12-05T02:58:35;5.10;99.90
2889;DHT22;1453;42.708;23.282;2022-12-05T03:01:05;5.20;99.90
2889;DHT22;1453;42.708;23.282;2022-12-05T03:03:32;5.30;99.90
2889;DHT22;1453;42.708;23.282;2022-12-05T03:06:12;5.30;99.90
2889;DHT22;1453;42.708;23.282;2022-12-05T03:09:07;5.10;99.90
2889;DHT22;1453;42.708;23.282;2022-12-05T03:11:59;5.10;99.90
2889;DHT22;1453;42.708;23.282;2022-12-05T03:14:34;5.20;99.90
2889;DHT22;1453;42.708;23.282;2022-12-05T03:17:09;5.30;99.90
2889;DHT22;1453;42.708;23.282;2022-12-05T03:20:08;5.40;99.90
2889;DHT22;1453;42.708;23.282;2022-12-05T03:22:55;5.60;99.90
2889;DHT22;1453;42.708;23.282;2022-12-05T03:25:39;5.60;99.90
2889;DHT22;1453;42.708;23.282;2022-12-05T03:28:20;5.60;99.90
2889;DHT22;1453;42.708;23.282;2022-12-05T03:30:52;5.50;99.90
2889;DHT22;1453;42.708;23.282;2022-12-05T03:33:29;5.40;99.90
2889;DHT22;1453;42.708;23.282;2022-12-05T03:36:27;5.30;99.90
2889;DHT22;1453;42.708;23.282;2022-12-05T03:38:56;5.30;99.90
2889;DHT22;1453;42.708;23.282;2022-12-05T03:41:40;5.40;99.90
2889;DHT22;1453;42.708;23.282;2022-12-05T03:44:19;5.50;99.90
2889;DHT22;1453;42.708;23.282;2022-12-05T03:47:11;5.50;99.90
2889;DHT22;1453;42.708;23.282;2022-12-05T03:49:51;5.50;99.90
2889;DHT22;1453;42.708;23.282;2022-12-05T03:52:30;5.40;99.90
2889;DHT22;1453;42.708;23.282;2022-12-05T03:55:01;5.50;99.90
2889;DHT22;1453;42.708;23.282;2022-12-05T03:57:53;5.60;99.90
2889;DHT22;1453;42.708;23.282;2022-12-05T04:00:23;5.70;99.90
2889;DHT22;1453;42.708;23.282;2022-12-05T04:05:58;5.50;99.90
2889;DHT22;1453;42.708;23.282;2022-12-05T04:09:11;5.40;99.90
2889;DHT22;1453;42.708;23.282;2022-12-05T04:11:54;5.40;99.90
2889;DHT22;1453;42.708;23.282;2022-12-05T04:14:38;5.40;99.90
2889;DHT22;1453;42.708;23.282;2022-12-05T04:23:02;5.50;99.90
2889;DHT22;1453;42.708;23.282;2022-12-05T04:25:36;5.40;99.90
2889;DHT22;1453;42.708;23.282;2022-12-05T04:31:10;5.60;99.90
2889;DHT22;1453;42.708;23.282;2022-12-05T04:33:45;5.50;99.90
2889;DHT22;1453;42.708;23.282;2022-12-05T04:36:39;5.40;99.90
2889;DHT22;1453;42.708;23.282;2022-12-05T04:39:24;5.60;99.90
2889;DHT22;1453;42.708;23.282;2022-12-05T04:41:57;5.60;99.90
2889;DHT22;1453;42.708;23.282;2022-12-05T04:44:33;5.40;99.90
2889;DHT22;1453;42.708;23.282;2022-12-05T04:47:04;5.30;99.90
2889;DHT22;1453;42.708;23.282;2022-12-05T04:49:34;5.20;99.90
2889;DHT22;1453;42.708;23.282;2022-12-05T04:52:03;5.30;99.90
2889;DHT22;1453;42.708;23.282;2022-12-05T04:54:47;5.30;99.90
2889;DHT22;1453;42.708;23.282;2022-12-05T04:57:32;5.30;99.90
2889;DHT22;1453;42.708;23.282;2022-12-05T05:00:00;5.20;99.90
2889;DHT22;1453;42.708;23.282;2022-12-05T05:02:39;5.10;99.90
2889;DHT22;1453;42.708;23.282;2022-12-05T05:05:17;5.20;99.90
2889;DHT22;1453;42.708;23.282;2022-12-05T05:07:49;5.30;99.90
2889;DHT22;1453;42.708;23.282;2022-12-05T05:10:31;5.40;99.90
2889;DHT22;1453;42.708;23.282;2022-12-05T05:12:58;5.50;99.90
2889;DHT22;1453;42.708;23.282;2022-12-05T05:15:24;5.40;99.90
2889;DHT22;1453;42.708;23.282;2022-12-05T05:17:50;5.50;99.90
2889;DHT22;1453;42.708;23.282;2022-12-05T05:20:15;5.50;99.90
2889;DHT22;1453;42.708;23.282;2022-12-05T05:22:57;5.60;99.90
2889;DHT22;1453;42.708;23.282;2022-12-05T05:25:24;5.70;99.90
2889;DHT22;1453;42.708;23.282;2022-12-05T05:27:52;5.60;99.90
2889;DHT22;1453;42.708;23.282;2022-12-05T05:30:20;5.50;99.90
2889;DHT22;1453;42.708;23.282;2022-12-05T05:32:47;5.30;99.90
2889;DHT22;1453;42.708;23.282;2022-12-05T05:35:14;5.50;99.90
2889;DHT22;1453;42.708;23.282;2022-12-05T05:37:40;5.60;99.90
2889;DHT22;1453;42.708;23.282;2022-12-05T05:40:09;5.60;99.90
2889;DHT22;1453;42.708;23.282;2022-12-05T05:42:45;5.70;99.90
2889;DHT22;1453;42.708;23.282;2022-12-05T05:45:13;5.70;99.90
2889;DHT22;1453;42.708;23.282;2022-12-05T05:47:40;5.60;99.90
2889;DHT22;1453;42.708;23.282;2022-12-05T05:50:07;5.50;99.90
2889;DHT22;1453;42.708;23.282;2022-12-05T05:52:35;5.40;99.90
2889;DHT22;1453;42.708;23.282;2022-12-05T05:55:02;5.30;99.90
2889;DHT22;1453;42.708;23.282;2022-12-05T05:57:30;5.50;99.90
2889;DHT22;1453;42.708;23.282;2022-12-05T05:59:55;5.60;99.90
2889;DHT22;1453;42.708;23.282;2022-12-05T06:02:21;5.70;99.90
2889;DHT22;1453;42.708;23.282;2022-12-05T06:04:47;5.60;99.90
2889;DHT22;1453;42.708;23.282;2022-12-05T06:07:13;5.70;99.90
2889;DHT22;1453;42.708;23.282;2022-12-05T06:09:39;5.80;99.90
2889;DHT22;1453;42.708;23.282;2022-12-05T06:12:05;6.00;99.90
2889;DHT22;1453;42.708;23.282;2022-12-05T06:14:31;5.90;99.90
2889;DHT22;1453;42.708;23.282;2022-12-05T06:16:57;5.90;99.90
2889;DHT22;1453;42.708;23.282;2022-12-05T06:19:22;6.10;99.90
2889;DHT22;1453;42.708;23.282;2022-12-05T06:21:49;6.00;99.90
2889;DHT22;1453;42.708;23.282;2022-12-05T06:24:16;6.00;99.90
2889;DHT22;1453;42.708;23.282;2022-12-05T06:26:42;5.90;99.90
2889;DHT22;1453;42.708;23.282;2022-12-05T06:29:09;5.90;99.90
2889;DHT22;1453;42.708;23.282;2022-12-05T06:31:35;5.80;99.90
2889;DHT22;1453;42.708;23.282;2022-12-05T06:34:02;5.90;99.90
2889;DHT22;1453;42.708;23.282;2022-12-05T06:36:28;6.00;99.90
2889;DHT22;1453;42.708;23.282;2022-12-05T06:38:56;6.00;99.90
2889;DHT22;1453;42.708;23.282;2022-12-05T06:41:23;5.90;99.90
2889;DHT22;1453;42.708;23.282;2022-12-05T06:43:54;5.80;99.90
2889;DHT22;1453;42.708;23.282;2022-12-05T06:46:21;6.00;99.90
2889;DHT22;1453;42.708;23.282;2022-12-05T06:48:52;6.20;99.90
2889;DHT22;1453;42.708;23.282;2022-12-05T06:51:18;6.10;99.90
2889;DHT22;1453;42.708;23.282;2022-12-05T06:53:44;5.90;99.90
2889;DHT22;1453;42.708;23.282;2022-12-05T06:56:13;5.90;99.90
2889;DHT22;1453;42.708;23.282;2022-12-05T06:58:42;6.00;99.90
2889;DHT22;1453;42.708;23.282;2022-12-05T07:01:11;6.20;99.90
2889;DHT22;1453;42.708;23.282;2022-12-05T07:03:57;6.00;99.90
2889;DHT22;1453;42.708;23.282;2022-12-05T07:06:24;5.90;99.90
2889;DHT22;1453;42.708;23.282;2022-12-05T07:08:50;6.00;99.90
2889;DHT22;1453;42.708;23.282;2022-12-05T07:11:15;5.90;99.90
2889;DHT22;1453;42.708;23.282;2022-12-05T07:13:41;6.00;99.90
2889;DHT22;1453;42.708;23.282;2022-12-05T07:16:07;6.00;99.90
2889;DHT22;1453;42.708;23.282;2022-12-05T07:18:34;5.90;99.90
2889;DHT22;1453;42.708;23.282;2022-12-05T07:21:03;5.90;99.90
2889;DHT22;1453;42.708;23.282;2022-12-05T07:23:30;5.90;99.90
2889;DHT22;1453;42.708;23.282;2022-12-05T07:25:56;5.80;99.90
2889;DHT22;1453;42.708;23.282;2022-12-05T07:28:22;5.70;99.90
2889;DHT22;1453;42.708;23.282;2022-12-05T07:30:58;5.70;99.90
2889;DHT22;1453;42.708;23.282;2022-12-05T07:33:28;5.90;99.90
2889;DHT22;1453;42.708;23.282;2022-12-05T07:36:02;6.00;99.90
2889;DHT22;1453;42.708;23.282;2022-12-05T07:38:33;6.00;99.90
2889;DHT22;1453;42.708;23.282;2022-12-05T07:41:03;6.00;99.90
2889;DHT22;1453;42.708;23.282;2022-12-05T07:43:32;5.90;99.90
2889;DHT22;1453;42.708;23.282;2022-12-05T07:46:05;5.90;99.90
2889;DHT22;1453;42.708;23.282;2022-12-05T07:48:32;5.90;99.90
2889;DHT22;1453;42.708;23.282;2022-12-05T07:51:02;5.90;99.90
2889;DHT22;1453;42.708;23.282;2022-12-05T07:53:29;6.00;99.90
2889;DHT22;1453;42.708;23.282;2022-12-05T07:56:01;5.90;99.90
2889;DHT22;1453;42.708;23.282;2022-12-05T07:58:28;5.80;99.90
2889;DHT22;1453;42.708;23.282;2022-12-05T08:00:55;5.70;99.90
2889;DHT22;1453;42.708;23.282;2022-12-05T08:03:21;5.80;99.90
2889;DHT22;1453;42.708;23.282;2022-12-05T08:05:47;5.80;99.90
2889;DHT22;1453;42.708;23.282;2022-12-05T08:08:13;5.90;99.90
2889;DHT22;1453;42.708;23.282;2022-12-05T08:10:38;6.00;99.90
2889;DHT22;1453;42.708;23.282;2022-12-05T08:13:04;6.10;99.90
2889;DHT22;1453;42.708;23.282;2022-12-05T08:15:34;6.10;99.90
2889;DHT22;1453;42.708;23.282;2022-12-05T08:18:01;5.90;99.90
2889;DHT22;1453;42.708;23.282;2022-12-05T08:20:27;6.00;99.90
2889;DHT22;1453;42.708;23.282;2022-12-05T08:22:53;6.10;99.90
2889;DHT22;1453;42.708;23.282;2022-12-05T08:25:19;6.10;99.90
2889;DHT22;1453;42.708;23.282;2022-12-05T08:27:44;6.10;99.90
2889;DHT22;1453;42.708;23.282;2022-12-05T08:30:10;6.00;99.90
2889;DHT22;1453;42.708;23.282;2022-12-05T08:32:36;6.00;99.90
2889;DHT22;1453;42.708;23.282;2022-12-05T08:35:02;6.20;99.90
2889;DHT22;1453;42.708;23.282;2022-12-05T08:37:28;6.40;99.90
2889;DHT22;1453;42.708;23.282;2022-12-05T08:39:54;6.60;99.90
2889;DHT22;1453;42.708;23.282;2022-12-05T08:42:19;6.70;99.90
2889;DHT22;1453;42.708;23.282;2022-12-05T08:44:45;6.70;99.90
2889;DHT22;1453;42.708;23.282;2022-12-05T08:47:11;6.70;99.90
2889;DHT22;1453;42.708;23.282;2022-12-05T08:49:37;6.50;99.90
2889;DHT22;1453;42.708;23.282;2022-12-05T08:52:02;6.40;99.90
2889;DHT22;1453;42.708;23.282;2022-12-05T08:54:28;6.40;99.90
2889;DHT22;1453;42.708;23.282;2022-12-05T08:56:55;6.20;99.90
2889;DHT22;1453;42.708;23.282;2022-12-05T08:59:21;6.30;99.90
2889;DHT22;1453;42.708;23.282;2022-12-05T09:01:49;6.30;99.90
2889;DHT22;1453;42.708;23.282;2022-12-05T09:04:14;6.10;99.90
2889;DHT22;1453;42.708;23.282;2022-12-05T09:06:40;6.10;99.90
2889;DHT22;1453;42.708;23.282;2022-12-05T09:09:08;6.20;99.90
2889;DHT22;1453;42.708;23.282;2022-12-05T09:11:38;6.30;99.90
2889;DHT22;1453;42.708;23.282;2022-12-05T09:14:08;6.50;99.90
2889;DHT22;1453;42.708;23.282;2022-12-05T09:16:35;6.50;99.90
2889;DHT22;1453;42.708;23.282;2022-12-05T09:19:02;6.70;99.90
2889;DHT22;1453;42.708;23.282;2022-12-05T09:21:29;6.80;99.90
2889;DHT22;1453;42.708;23.282;2022-12-05T09:23:58;6.70;99.90
2889;DHT22;1453;42.708;23.282;2022-12-05T09:26:25;6.60;99.90
2889;DHT22;1453;42.708;23.282;2022-12-05T09:28:52;7.00;99.90
2889;DHT22;1453;42.708;23.282;2022-12-05T09:31:22;6.90;99.90
2889;DHT22;1453;42.708;23.282;2022-12-05T09:33:50;7.00;99.90
2889;DHT22;1453;42.708;23.282;2022-12-05T09:36:23;7.00;99.90
2889;DHT22;1453;42.708;23.282;2022-12-05T09:38:53;7.10;99.90
2889;DHT22;1453;42.708;23.282;2022-12-05T09:45:29;7.00;99.90
2889;DHT22;1453;42.708;23.282;2022-12-05T09:48:12;7.00;99.90
2889;DHT22;1453;42.708;23.282;2022-12-05T09:51:01;7.20;99.90
2889;DHT22;1453;42.708;23.282;2022-12-05T09:53:40;7.00;99.90
2889;DHT22;1453;42.708;23.282;2022-12-05T09:56:27;6.90;99.90
2889;DHT22;1453;42.708;23.282;2022-12-05T09:58:57;7.00;99.90
2889;DHT22;1453;42.708;23.282;2022-12-05T10:05:13;7.30;99.90
2889;DHT22;1453;42.708;23.282;2022-12-05T10:08:25;7.30;99.90
2889;DHT22;1453;42.708;23.282;2022-12-05T10:14:36;7.50;99.90
2889;DHT22;1453;42.708;23.282;2022-12-05T10:17:31;7.50;99.90
2889;DHT22;1453;42.708;23.282;2022-12-05T10:20:09;7.60;99.90
2889;DHT22;1453;42.708;23.282;2022-12-05T10:22:49;7.50;99.90
2889;DHT22;1453;42.708;23.282;2022-12-05T10:25:21;7.70;99.90
2889;DHT22;1453;42.708;23.282;2022-12-05T10:27:59;7.60;99.90
2889;DHT22;1453;42.708;23.282;2022-12-05T10:30:31;7.40;99.90
2889;DHT22;1453;42.708;23.282;2022-12-05T10:33:02;7.70;99.90
2889;DHT22;1453;42.708;23.282;2022-12-05T10:35:37;7.80;99.90
2889;DHT22;1453;42.708;23.282;2022-12-05T10:38:16;7.90;99.90
2889;DHT22;1453;42.708;23.282;2022-12-05T10:40:50;8.00;99.90
2889;DHT22;1453;42.708;23.282;2022-12-05T10:43:26;8.00;99.90
2889;DHT22;1453;42.708;23.282;2022-12-05T10:45:54;7.90;99.90
2889;DHT22;1453;42.708;23.282;2022-12-05T10:48:21;7.60;99.90
2889;DHT22;1453;42.708;23.282;2022-12-05T10:50:50;7.60;99.90
2889;DHT22;1453;42.708;23.282;2022-12-05T10:53:27;7.60;99.90
2889;DHT22;1453;42.708;23.282;2022-12-05T10:55:57;7.40;99.90
2889;DHT22;1453;42.708;23.282;2022-12-05T10:58:29;7.50;99.90
2889;DHT22;1453;42.708;23.282;2022-12-05T11:00:57;7.70;99.90
2889;DHT22;1453;42.708;23.282;2022-12-05T11:03:35;7.60;99.90
2889;DHT22;1453;42.708;23.282;2022-12-05T11:06:26;7.20;99.90
2889;DHT22;1453;42.708;23.282;2022-12-05T11:08:55;7.20;99.90
2889;DHT22;1453;42.708;23.282;2022-12-05T11:11:25;7.30;99.90
2889;DHT22;1453;42.708;23.282;2022-12-05T11:14:00;7.40;99.90
2889;DHT22;1453;42.708;23.282;2022-12-05T11:16:33;7.50;99.90
2889;DHT22;1453;42.708;23.282;2022-12-05T11:21:52;7.40;99.90
2889;DHT22;1453;42.708;23.282;2022-12-05T11:24:31;7.30;99.90
2889;DHT22;1453;42.708;23.282;2022-12-05T11:29:52;7.10;99.90
2889;DHT22;1453;42.708;23.282;2022-12-05T11:32:23;7.10;99.90
2889;DHT22;1453;42.708;23.282;2022-12-05T11:37:49;6.90;99.90
2889;DHT22;1453;42.708;23.282;2022-12-05T11:40:29;7.00;99.90
2889;DHT22;1453;42.708;23.282;2022-12-05T11:51:39;7.30;99.90
2889;DHT22;1453;42.708;23.282;2022-12-05T12:00:22;6.90;99.90
2889;DHT22;1453;42.708;23.282;2022-12-05T12:12:24;7.00;99.90
2889;DHT22;1453;42.708;23.282;2022-12-05T12:15:01;7.10;99.90
2889;DHT22;1453;42.708;23.282;2022-12-05T12:18:07;7.00;99.90
2889;DHT22;1453;42.708;23.282;2022-12-05T12:20:55;6.70;99.90
2889;DHT22;1453;42.708;23.282;2022-12-05T12:27:26;6.90;99.90
2889;DHT22;1453;42.708;23.282;2022-12-05T12:46:56;6.70;99.90
2889;DHT22;1453;42.708;23.282;2022-12-05T12:52:25;6.70;99.90
2889;DHT22;1453;42.708;23.282;2022-12-05T13:05:50;6.70;99.90
2889;DHT22;1453;42.708;23.282;2022-12-05T13:08:38;6.80;99.90
2889;DHT22;1453;42.708;23.282;2022-12-05T13:11:10;6.90;99.90
2889;DHT22;1453;42.708;23.282;2022-12-05T13:13:50;6.80;99.90
2889;DHT22;1453;42.708;23.282;2022-12-05T13:16:31;6.80;99.90
2889;DHT22;1453;42.708;23.282;2022-12-05T13:18:59;6.60;99.90
2889;DHT22;1453;42.708;23.282;2022-12-05T13:21:27;6.60;99.90
2889;DHT22;1453;42.708;23.282;2022-12-05T13:23:56;6.40;99.90
2889;DHT22;1453;42.708;23.282;2022-12-05T13:26:31;6.40;99.90
2889;DHT22;1453;42.708;23.282;2022-12-05T13:29:00;6.40;99.90
2889;DHT22;1453;42.708;23.282;2022-12-05T13:31:43;6.40;99.90
2889;DHT22;1453;42.708;23.282;2022-12-05T13:36:58;6.30;99.90
2889;DHT22;1453;42.708;23.282;2022-12-05T13:39:53;6.40;99.90
2889;DHT22;1453;42.708;23.282;2022-12-05T13:42:38;6.30;99.90
2889;DHT22;1453;42.708;23.282;2022-12-05T13:45:06;6.40;99.90
2889;DHT22;1453;42.708;23.282;2022-12-05T13:50:41;6.40;99.90
2889;DHT22;1453;42.708;23.282;2022-12-05T13:53:46;6.40;99.90
2889;DHT22;1453;42.708;23.282;2022-12-05T14:17:23;6.20;99.90
2889;DHT22;1453;42.708;23.282;2022-12-05T14:20:19;6.10;99.90
2889;DHT22;1453;42.708;23.282;2022-12-05T14:25:58;6.30;99.90
2889;DHT22;1453;42.708;23.282;2022-12-05T14:40:34;6.50;99.90
2889;DHT22;1453;42.708;23.282;2022-12-05T14:45:58;6.50;99.90
2889;DHT22;1453;42.708;23.282;2022-12-05T14:50:57;6.40;99.90
2889;DHT22;1453;42.708;23.282;2022-12-05T14:53:40;6.40;99.90
2889;DHT22;1453;42.708;23.282;2022-12-05T14:56:19;6.40;99.90
2889;DHT22;1453;42.708;23.282;2022-12-05T14:59:24;6.30;99.90
2889;DHT22;1453;42.708;23.282;2022-12-05T15:02:00;6.40;99.90
2889;DHT22;1453;42.708;23.282;2022-12-05T15:07:16;6.50;99.90
2889;DHT22;1453;42.708;23.282;2022-12-05T15:10:20;6.60;99.90
2889;DHT22;1453;42.708;23.282;2022-12-05T15:15:44;6.60;99.90
2889;DHT22;1453;42.708;23.282;2022-12-05T15:18:33;6.60;99.90
2889;DHT22;1453;42.708;23.282;2022-12-05T15:21:12;6.50;99.90
2889;DHT22;1453;42.708;23.282;2022-12-05T15:23:57;6.40;99.90
2889;DHT22;1453;42.708;23.282;2022-12-05T15:31:49;6.50;99.90
2889;DHT22;1453;42.708;23.282;2022-12-05T15:37:09;6.70;99.90
2889;DHT22;1453;42.708;23.282;2022-12-05T15:39:53;6.60;99.90
2889;DHT22;1453;42.708;23.282;2022-12-05T15:42:22;6.80;99.90
2889;DHT22;1453;42.708;23.282;2022-12-05T15:44:52;6.80;99.90
2889;DHT22;1453;42.708;23.282;2022-12-05T15:47:23;6.50;99.90
2889;DHT22;1453;42.708;23.282;2022-12-05T15:49:50;6.50;99.90
2889;DHT22;1453;42.708;23.282;2022-12-05T15:52:24;6.60;99.90
2889;DHT22;1453;42.708;23.282;2022-12-05T15:55:14;6.60;99.90
2889;DHT22;1453;42.708;23.282;2022-12-05T15:58:03;6.60;99.90
2889;DHT22;1453;42.708;23.282;2022-12-05T16:00:33;6.50;99.90
2889;DHT22;1453;42.708;23.282;2022-12-05T16:03:12;6.60;99.90
2889;DHT22;1453;42.708;23.282;2022-12-05T16:05:46;6.50;99.90
2889;DHT22;1453;42.708;23.282;2022-12-05T16:08:16;6.50;99.90
2889;DHT22;1453;42.708;23.282;2022-12-05T16:10:42;6.30;99.90
2889;DHT22;1453;42.708;23.282;2022-12-05T16:13:13;6.30;99.90
2889;DHT22;1453;42.708;23.282;2022-12-05T16:15:48;6.40;99.90
2889;DHT22;1453;42.708;23.282;2022-12-05T16:18:30;6.40;99.90
2889;DHT22;1453;42.708;23.282;2022-12-05T16:20:56;6.40;99.90
2889;DHT22;1453;42.708;23.282;2022-12-05T16:23:29;6.30;99.90
2889;DHT22;1453;42.708;23.282;2022-12-05T16:26:17;6.30;99.90
2889;DHT22;1453;42.708;23.282;2022-12-05T16:28:59;6.30;99.90
2889;DHT22;1453;42.708;23.282;2022-12-05T16:31:27;6.30;99.90
2889;DHT22;1453;42.708;23.282;2022-12-05T16:34:07;6.40;99.90
2889;DHT22;1453;42.708;23.282;2022-12-05T16:36:45;6.40;99.90
2889;DHT22;1453;42.708;23.282;2022-12-05T16:39:13;6.30;99.90
2889;DHT22;1453;42.708;23.282;2022-12-05T16:41:40;6.30;99.90
2889;DHT22;1453;42.708;23.282;2022-12-05T16:44:52;6.20;99.90
2889;DHT22;1453;42.708;23.282;2022-12-05T16:47:23;6.20;99.90
2889;DHT22;1453;42.708;23.282;2022-12-05T16:49:50;6.10;99.90
2889;DHT22;1453;42.708;23.282;2022-12-05T16:52:17;6.10;99.90
2889;DHT22;1453;42.708;23.282;2022-12-05T16:54:46;6.00;99.90
2889;DHT22;1453;42.708;23.282;2022-12-05T16:57:14;6.00;99.90
2889;DHT22;1453;42.708;23.282;2022-12-05T16:59:41;6.10;99.90
2889;DHT22;1453;42.708;23.282;2022-12-05T17:02:17;6.20;99.90
2889;DHT22;1453;42.708;23.282;2022-12-05T17:04:44;6.30;99.90
2889;DHT22;1453;42.708;23.282;2022-12-05T17:07:11;6.40;99.90
2889;DHT22;1453;42.708;23.282;2022-12-05T17:09:37;6.40;99.90
2889;DHT22;1453;42.708;23.282;2022-12-05T17:12:20;6.40;99.90
2889;DHT22;1453;42.708;23.282;2022-12-05T17:14:47;6.40;99.90
2889;DHT22;1453;42.708;23.282;2022-12-05T17:17:13;6.40;99.90
2889;DHT22;1453;42.708;23.282;2022-12-05T17:19:43;6.30;99.90
2889;DHT22;1453;42.708;23.282;2022-12-05T17:22:11;6.20;99.90
2889;DHT22;1453;42.708;23.282;2022-12-05T17:24:37;6.20;99.90
2889;DHT22;1453;42.708;23.282;2022-12-05T17:27:05;5.90;99.90
2889;DHT22;1453;42.708;23.282;2022-12-05T17:29:34;6.00;99.90
2889;DHT22;1453;42.708;23.282;2022-12-05T17:32:00;6.00;99.90
2889;DHT22;1453;42.708;23.282;2022-12-05T17:34:26;6.00;99.90
2889;DHT22;1453;42.708;23.282;2022-12-05T17:36:52;6.10;99.90
2889;DHT22;1453;42.708;23.282;2022-12-05T17:39:18;6.10;99.90
2889;DHT22;1453;42.708;23.282;2022-12-05T17:41:43;6.20;99.90
2889;DHT22;1453;42.708;23.282;2022-12-05T17:44:12;6.20;99.90
2889;DHT22;1453;42.708;23.282;2022-12-05T17:46:40;6.30;99.90
2889;DHT22;1453;42.708;23.282;2022-12-05T17:49:14;6.30;99.90
2889;DHT22;1453;42.708;23.282;2022-12-05T17:51:41;6.40;99.90
2889;DHT22;1453;42.708;23.282;2022-12-05T17:54:07;6.30;99.90
2889;DHT22;1453;42.708;23.282;2022-12-05T17:56:33;6.30;99.90
2889;DHT22;1453;42.708;23.282;2022-12-05T17:58:59;6.40;99.90
2889;DHT22;1453;42.708;23.282;2022-12-05T18:01:25;6.40;99.90
2889;DHT22;1453;42.708;23.282;2022-12-05T18:03:51;6.40;99.90
2889;DHT22;1453;42.708;23.282;2022-12-05T18:06:17;6.50;99.90
2889;DHT22;1453;42.708;23.282;2022-12-05T18:08:43;6.60;99.90
2889;DHT22;1453;42.708;23.282;2022-12-05T18:11:13;6.60;99.90
2889;DHT22;1453;42.708;23.282;2022-12-05T18:13:39;6.70;99.90
2889;DHT22;1453;42.708;23.282;2022-12-05T18:16:05;6.70;99.90
2889;DHT22;1453;42.708;23.282;2022-12-05T18:18:31;6.80;99.90
2889;DHT22;1453;42.708;23.282;2022-12-05T18:21:09;6.90;99.90
2889;DHT22;1453;42.708;23.282;2022-12-05T18:23:37;6.90;99.90
2889;DHT22;1453;42.708;23.282;2022-12-05T18:26:05;6.80;99.90
2889;DHT22;1453;42.708;23.282;2022-12-05T18:28:34;6.90;99.90
2889;DHT22;1453;42.708;23.282;2022-12-05T18:31:22;7.00;99.90
2889;DHT22;1453;42.708;23.282;2022-12-05T18:33:47;7.00;99.90
2889;DHT22;1453;42.708;23.282;2022-12-05T18:36:16;7.00;99.90
2889;DHT22;1453;42.708;23.282;2022-12-05T18:38:49;7.10;99.90
2889;DHT22;1453;42.708;23.282;2022-12-05T18:41:16;7.10;99.90
2889;DHT22;1453;42.708;23.282;2022-12-05T18:43:41;7.00;99.90
2889;DHT22;1453;42.708;23.282;2022-12-05T18:46:07;7.00;99.90
2889;DHT22;1453;42.708;23.282;2022-12-05T18:48:34;6.80;99.90
2889;DHT22;1453;42.708;23.282;2022-12-05T18:51:15;6.70;99.90
2889;DHT22;1453;42.708;23.282;2022-12-05T18:53:43;6.70;99.90
2889;DHT22;1453;42.708;23.282;2022-12-05T18:56:21;6.70;99.90
2889;DHT22;1453;42.708;23.282;2022-12-05T18:58:52;6.70;99.90
2889;DHT22;1453;42.708;23.282;2022-12-05T19:01:38;6.60;99.90
2889;DHT22;1453;42.708;23.282;2022-12-05T19:04:07;6.80;99.90
2889;DHT22;1453;42.708;23.282;2022-12-05T19:06:37;6.90;99.90
2889;DHT22;1453;42.708;23.282;2022-12-05T19:09:15;6.80;99.90
2889;DHT22;1453;42.708;23.282;2022-12-05T19:11:43;6.70;99.90
2889;DHT22;1453;42.708;23.282;2022-12-05T19:14:11;6.60;99.90
2889;DHT22;1453;42.708;23.282;2022-12-05T19:16:37;6.60;99.90
2889;DHT22;1453;42.708;23.282;2022-12-05T19:19:07;6.70;99.90
2889;DHT22;1453;42.708;23.282;2022-12-05T19:21:35;6.70;99.90
2889;DHT22;1453;42.708;23.282;2022-12-05T19:24:03;6.70;99.90
2889;DHT22;1453;42.708;23.282;2022-12-05T19:26:30;6.70;99.90
2889;DHT22;1453;42.708;23.282;2022-12-05T19:28:56;6.70;99.90